sensor_id;sensor_type;location;lat;lon;timestamp;pressure;altitude;pressure_sealevel;temperature;humidity
56182;BME280;51963;46.052;14.544;2023-04-01T00:00:27;97063.47;;;6.87;100.00
56182;BME280;51963;46.052;14.544;2023-04-01T00:02:53;97078.66;;;6.92;100.00
56182;BME280;51963;46.052;14.544;2023-04-01T00:05:19;97064.31;;;6.87;100.00
56182;BME280;51963;46.052;14.544;2023-04-01T00:07:45;97036.22;;;6.95;100.00
56182;BME280;51963;46.052;14.544;2023-04-01T00:10:12;97045.91;;;6.87;100.00
56182;BME280;51963;46.052;14.544;2023-04-01T00:12:39;97039.44;;;6.83;100.00
56182;BME280;51963;46.052;14.544;2023-04-01T00:15:06;97033.72;;;6.73;100.00
56182;BME280;51963;46.052;14.544;2023-04-01T00:17:32;97028.88;;;6.77;100.00
56182;BME280;51963;46.052;14.544;2023-04-01T00:19:58;97016.97;;;6.74;100.00
56182;BME280;51963;46.052;14.544;2023-04-01T00:22:24;97016.75;;;6.69;100.00
56182;BME280;51963;46.052;14.544;2023-04-01T00:24:50;97013.88;;;6.64;100.00
56182;BME280;51963;46.052;14.544;2023-04-01T00:27:16;97007.59;;;6.58;100.00
56182;BME280;51963;46.052;14.544;2023-04-01T00:29:42;96978.91;;;6.56;100.00
56182;BME280;51963;46.052;14.544;2023-04-01T00:32:08;97008.06;;;6.75;100.00
56182;BME280;51963;46.052;14.544;2023-04-01T00:34:34;96990.66;;;6.60;100.00
56182;BME280;51963;46.052;14.544;2023-04-01T00:36:59;96974.78;;;6.34;100.00
56182;BME280;51963;46.052;14.544;2023-04-01T00:39:28;96983.03;;;6.30;100.00
56182;BME280;51963;46.052;14.544;2023-04-01T00:41:54;96963.16;;;6.14;100.00
56182;BME280;51963;46.052;14.544;2023-04-01T00:44:28;96996.88;;;6.18;100.00
56182;BME280;51963;46.052;14.544;2023-04-01T00:46:55;96986.94;;;6.06;100.00
56182;BME280;51963;46.052;14.544;2023-04-01T00:49:25;96994.19;;;6.39;100.00
56182;BME280;51963;46.052;14.544;2023-04-01T00:51:54;97003.50;;;6.42;100.00
56182;BME280;51963;46.052;14.544;2023-04-01T00:54:22;96989.69;;;6.33;100.00
56182;BME280;51963;46.052;14.544;2023-04-01T00:56:53;96984.38;;;6.13;100.00
56182;BME280;51963;46.052;14.544;2023-04-01T00:59:29;96972.59;;;6.44;100.00
56182;BME280;51963;46.052;14.544;2023-04-01T01:01:55;96969.47;;;6.20;100.00
56182;BME280;51963;46.052;14.544;2023-04-01T01:09:41;96974.78;;;6.40;100.00
56182;BME280;51963;46.052;14.544;2023-04-01T01:12:22;96955.13;;;6.23;100.00
56182;BME280;51963;46.052;14.544;2023-04-01T01:15:15;96956.72;;;6.17;100.00
56182;BME280;51963;46.052;14.544;2023-04-01T01:35:49;96985.59;;;6.17;100.00
56182;BME280;51963;46.052;14.544;2023-04-01T01:37:56;96985.59;;;6.17;100.00
56182;BME280;51963;46.052;14.544;2023-04-01T01:40:26;96988.94;;;6.39;100.00
56182;BME280;51963;46.052;14.544;2023-04-01T01:42:55;97003.16;;;6.58;100.00
56182;BME280;51963;46.052;14.544;2023-04-01T01:45:25;97009.44;;;6.64;100.00
56182;BME280;51963;46.052;14.544;2023-04-01T01:47:51;97013.91;;;6.70;100.00
56182;BME280;51963;46.052;14.544;2023-04-01T01:50:19;97016.41;;;6.85;100.00
56182;BME280;51963;46.052;14.544;2023-04-01T01:52:45;96998.09;;;6.57;100.00
56182;BME280;51963;46.052;14.544;2023-04-01T01:55:30;97019.53;;;6.60;100.00
56182;BME280;51963;46.052;14.544;2023-04-01T01:58:17;97027.69;;;6.79;100.00
56182;BME280;51963;46.052;14.544;2023-04-01T02:00:50;97022.03;;;6.82;100.00
56182;BME280;51963;46.052;14.544;2023-04-01T02:03:20;97022.72;;;6.56;100.00
56182;BME280;51963;46.052;14.544;2023-04-01T02:05:47;97021.00;;;6.70;100.00
56182;BME280;51963;46.052;14.544;2023-04-01T02:08:22;97035.44;;;6.52;100.00
56182;BME280;51963;46.052;14.544;2023-04-01T02:10:59;97027.75;;;6.44;100.00
56182;BME280;51963;46.052;14.544;2023-04-01T02:13:54;97034.38;;;6.40;100.00
56182;BME280;51963;46.052;14.544;2023-04-01T02:16:53;97038.56;;;6.27;100.00
56182;BME280;51963;46.052;14.544;2023-04-01T02:19:25;97011.63;;;5.90;100.00
56182;BME280;51963;46.052;14.544;2023-04-01T02:21:56;97031.47;;;5.99;100.00
56182;BME280;51963;46.052;14.544;2023-04-01T02:24:26;97037.88;;;5.90;100.00
56182;BME280;51963;46.052;14.544;2023-04-01T02:26:53;97036.00;;;5.84;100.00
56182;BME280;51963;46.052;14.544;2023-04-01T02:29:20;97022.81;;;5.77;100.00
56182;BME280;51963;46.052;14.544;2023-04-01T02:31:47;97027.66;;;5.73;100.00
56182;BME280;51963;46.052;14.544;2023-04-01T02:34:15;97019.16;;;5.71;100.00
56182;BME280;51963;46.052;14.544;2023-04-01T02:36:41;97006.22;;;5.70;100.00
56182;BME280;51963;46.052;14.544;2023-04-01T02:39:07;97012.69;;;5.67;100.00
56182;BME280;51963;46.052;14.544;2023-04-01T02:41:42;97024.34;;;5.65;100.00
56182;BME280;51963;46.052;14.544;2023-04-01T02:44:10;97018.84;;;5.60;100.00
56182;BME280;51963;46.052;14.544;2023-04-01T02:46:36;97015.75;;;5.49;100.00
56182;BME280;51963;46.052;14.544;2023-04-01T02:49:04;97015.31;;;5.46;100.00
56182;BME280;51963;46.052;14.544;2023-04-01T02:51:30;97008.22;;;5.39;100.00
56182;BME280;51963;46.052;14.544;2023-04-01T02:53:56;97005.50;;;5.33;100.00
56182;BME280;51963;46.052;14.544;2023-04-01T02:56:22;97024.09;;;5.38;100.00
56182;BME280;51963;46.052;14.544;2023-04-01T02:58:48;97021.44;;;5.31;100.00
56182;BME280;51963;46.052;14.544;2023-04-01T03:01:13;97023.16;;;5.24;100.00
56182;BME280;51963;46.052;14.544;2023-04-01T03:03:39;97000.97;;;5.41;100.00
56182;BME280;51963;46.052;14.544;2023-04-01T03:06:10;97007.00;;;5.42;100.00
56182;BME280;51963;46.052;14.544;2023-04-01T03:08:36;97003.28;;;5.80;100.00
56182;BME280;51963;46.052;14.544;2023-04-01T03:11:02;96993.81;;;5.79;100.00
56182;BME280;51963;46.052;14.544;2023-04-01T03:13:33;96988.16;;;5.53;100.00
56182;BME280;51963;46.052;14.544;2023-04-01T03:15:58;96988.38;;;5.30;100.00
56182;BME280;51963;46.052;14.544;2023-04-01T03:18:24;96986.22;;;5.19;100.00
56182;BME280;51963;46.052;14.544;2023-04-01T03:20:50;97009.44;;;5.22;100.00
56182;BME280;51963;46.052;14.544;2023-04-01T03:23:16;97004.81;;;5.24;100.00
56182;BME280;51963;46.052;14.544;2023-04-01T03:25:49;96986.38;;;5.32;100.00
56182;BME280;51963;46.052;14.544;2023-04-01T03:28:15;96975.28;;;5.58;100.00
56182;BME280;51963;46.052;14.544;2023-04-01T03:30:41;96996.84;;;5.82;100.00
56182;BME280;51963;46.052;14.544;2023-04-01T03:33:08;97002.28;;;5.81;100.00
56182;BME280;51963;46.052;14.544;2023-04-01T03:35:34;96989.47;;;5.64;100.00
56182;BME280;51963;46.052;14.544;2023-04-01T03:38:02;97006.75;;;5.37;100.00
56182;BME280;51963;46.052;14.544;2023-04-01T03:40:27;97009.81;;;5.19;100.00
56182;BME280;51963;46.052;14.544;2023-04-01T03:42:53;97000.94;;;4.98;100.00
56182;BME280;51963;46.052;14.544;2023-04-01T03:45:19;97007.16;;;4.97;100.00
56182;BME280;51963;46.052;14.544;2023-04-01T03:47:45;97001.47;;;5.30;100.00
56182;BME280;51963;46.052;14.544;2023-04-01T03:50:11;97007.25;;;5.47;100.00
56182;BME280;51963;46.052;14.544;2023-04-01T03:52:36;97009.69;;;5.27;100.00
56182;BME280;51963;46.052;14.544;2023-04-01T03:55:02;97017.63;;;5.34;100.00
56182;BME280;51963;46.052;14.544;2023-04-01T03:57:30;97016.94;;;5.47;100.00
56182;BME280;51963;46.052;14.544;2023-04-01T04:00:01;97013.25;;;5.41;100.00
56182;BME280;51963;46.052;14.544;2023-04-01T04:02:27;97011.25;;;5.43;100.00
56182;BME280;51963;46.052;14.544;2023-04-01T04:04:53;97010.69;;;5.26;100.00
56182;BME280;51963;46.052;14.544;2023-04-01T04:07:20;97012.28;;;5.05;100.00
56182;BME280;51963;46.052;14.544;2023-04-01T04:10:07;96993.94;;;4.83;100.00
56182;BME280;51963;46.052;14.544;2023-04-01T04:12:32;97019.47;;;4.96;100.00
56182;BME280;51963;46.052;14.544;2023-04-01T04:14:58;97019.09;;;4.99;100.00
56182;BME280;51963;46.052;14.544;2023-04-01T04:17:24;97024.13;;;5.01;100.00
56182;BME280;51963;46.052;14.544;2023-04-01T04:19:50;97027.00;;;5.06;100.00
56182;BME280;51963;46.052;14.544;2023-04-01T04:22:16;97002.56;;;4.99;100.00
56182;BME280;51963;46.052;14.544;2023-04-01T04:24:42;97017.19;;;5.30;100.00
56182;BME280;51963;46.052;14.544;2023-04-01T04:27:11;97010.09;;;5.46;100.00
56182;BME280;51963;46.052;14.544;2023-04-01T04:29:46;97031.66;;;5.69;100.00
56182;BME280;51963;46.052;14.544;2023-04-01T04:32:11;97042.53;;;5.66;100.00
56182;BME280;51963;46.052;14.544;2023-04-01T04:34:37;97040.59;;;5.53;100.00
56182;BME280;51963;46.052;14.544;2023-04-01T04:37:03;97038.03;;;5.60;100.00
56182;BME280;51963;46.052;14.544;2023-04-01T04:39:33;97032.16;;;5.58;100.00
56182;BME280;51963;46.052;14.544;2023-04-01T04:41:58;97037.59;;;5.56;100.00
56182;BME280;51963;46.052;14.544;2023-04-01T04:44:24;97026.97;;;5.43;100.00
56182;BME280;51963;46.052;14.544;2023-04-01T04:46:50;97049.03;;;5.49;100.00
56182;BME280;51963;46.052;14.544;2023-04-01T04:49:16;97054.81;;;5.44;100.00
56182;BME280;51963;46.052;14.544;2023-04-01T04:51:42;97066.38;;;5.50;100.00
56182;BME280;51963;46.052;14.544;2023-04-01T04:54:08;97019.16;;;5.28;100.00
56182;BME280;51963;46.052;14.544;2023-04-01T04:57:06;97052.94;;;5.60;100.00
56182;BME280;51963;46.052;14.544;2023-04-01T04:59:38;97040.03;;;5.58;100.00
56182;BME280;51963;46.052;14.544;2023-04-01T05:02:13;97037.38;;;5.80;100.00
56182;BME280;51963;46.052;14.544;2023-04-01T05:04:39;97059.09;;;6.17;100.00
56182;BME280;51963;46.052;14.544;2023-04-01T05:07:08;97054.06;;;6.22;100.00
56182;BME280;51963;46.052;14.544;2023-04-01T05:09:34;97058.69;;;6.20;100.00
56182;BME280;51963;46.052;14.544;2023-04-01T05:12:00;97056.59;;;6.09;100.00
56182;BME280;51963;46.052;14.544;2023-04-01T05:14:30;97058.00;;;5.83;100.00
56182;BME280;51963;46.052;14.544;2023-04-01T05:17:09;97066.25;;;5.58;100.00
56182;BME280;51963;46.052;14.544;2023-04-01T05:19:35;97070.00;;;5.49;100.00
56182;BME280;51963;46.052;14.544;2023-04-01T05:22:00;97063.09;;;5.26;100.00
56182;BME280;51963;46.052;14.544;2023-04-01T05:24:26;97072.13;;;5.38;100.00
56182;BME280;51963;46.052;14.544;2023-04-01T05:26:52;97073.88;;;5.53;100.00
56182;BME280;51963;46.052;14.544;2023-04-01T05:29:18;97058.88;;;5.47;100.00
56182;BME280;51963;46.052;14.544;2023-04-01T05:31:47;97064.56;;;5.50;100.00
56182;BME280;51963;46.052;14.544;2023-04-01T05:34:13;97076.50;;;5.53;100.00
56182;BME280;51963;46.052;14.544;2023-04-01T05:36:39;97076.88;;;5.50;100.00
56182;BME280;51963;46.052;14.544;2023-04-01T05:39:05;97071.88;;;5.55;100.00
56182;BME280;51963;46.052;14.544;2023-04-01T05:41:31;97084.84;;;5.63;100.00
56182;BME280;51963;46.052;14.544;2023-04-01T05:43:57;97082.97;;;5.79;100.00
56182;BME280;51963;46.052;14.544;2023-04-01T05:46:42;97090.72;;;5.87;100.00
56182;BME280;51963;46.052;14.544;2023-04-01T05:49:15;97099.19;;;5.89;100.00
56182;BME280;51963;46.052;14.544;2023-04-01T05:51:41;97080.38;;;6.07;100.00
56182;BME280;51963;46.052;14.544;2023-04-01T05:54:07;97085.09;;;6.12;100.00
56182;BME280;51963;46.052;14.544;2023-04-01T05:56:33;97106.25;;;6.39;100.00
56182;BME280;51963;46.052;14.544;2023-04-01T05:58:59;97113.22;;;6.53;100.00
56182;BME280;51963;46.052;14.544;2023-04-01T06:01:25;97089.91;;;6.37;100.00
56182;BME280;51963;46.052;14.544;2023-04-01T06:03:50;97100.41;;;6.37;100.00
56182;BME280;51963;46.052;14.544;2023-04-01T06:06:24;97102.41;;;6.35;100.00
56182;BME280;51963;46.052;14.544;2023-04-01T06:08:52;97087.97;;;6.24;100.00
56182;BME280;51963;46.052;14.544;2023-04-01T06:17:30;97102.94;;;6.58;100.00
56182;BME280;51963;46.052;14.544;2023-04-01T06:20:20;97111.84;;;6.57;100.00
56182;BME280;51963;46.052;14.544;2023-04-01T06:39:22;97100.59;;;6.07;100.00
56182;BME280;51963;46.052;14.544;2023-04-01T06:44:47;97119.97;;;6.06;100.00
56182;BME280;51963;46.052;14.544;2023-04-01T06:47:50;97128.44;;;6.08;100.00
56182;BME280;51963;46.052;14.544;2023-04-01T06:56:56;97133.53;;;6.73;100.00
56182;BME280;51963;46.052;14.544;2023-04-01T06:59:30;97127.84;;;6.69;100.00
56182;BME280;51963;46.052;14.544;2023-04-01T07:02:32;97148.53;;;6.79;100.00
56182;BME280;51963;46.052;14.544;2023-04-01T07:05:00;97146.63;;;6.66;100.00
56182;BME280;51963;46.052;14.544;2023-04-01T07:07:39;97144.75;;;6.88;100.00
56182;BME280;51963;46.052;14.544;2023-04-01T07:10:17;97138.66;;;6.88;100.00
56182;BME280;51963;46.052;14.544;2023-04-01T07:13:19;97141.56;;;7.00;100.00
56182;BME280;51963;46.052;14.544;2023-04-01T07:16:05;97144.69;;;7.24;100.00
56182;BME280;51963;46.052;14.544;2023-04-01T07:18:50;97142.16;;;7.51;100.00
56182;BME280;51963;46.052;14.544;2023-04-01T07:21:25;97140.06;;;7.26;100.00
56182;BME280;51963;46.052;14.544;2023-04-01T07:23:57;97135.59;;;7.19;100.00
56182;BME280;51963;46.052;14.544;2023-04-01T07:26:36;97147.38;;;7.37;100.00
56182;BME280;51963;46.052;14.544;2023-04-01T07:29:13;97149.06;;;7.65;100.00
56182;BME280;51963;46.052;14.544;2023-04-01T07:37:11;97162.13;;;8.74;100.00
56182;BME280;51963;46.052;14.544;2023-04-01T07:48:13;97162.75;;;9.29;100.00
56182;BME280;51963;46.052;14.544;2023-04-01T07:51:24;97158.72;;;9.19;100.00
56182;BME280;51963;46.052;14.544;2023-04-01T07:56:37;97163.13;;;9.39;100.00
56182;BME280;51963;46.052;14.544;2023-04-01T07:59:21;97153.63;;;9.70;100.00
56182;BME280;51963;46.052;14.544;2023-04-01T08:02:06;97153.88;;;9.94;100.00
56182;BME280;51963;46.052;14.544;2023-04-01T08:07:48;97161.69;;;9.82;100.00
56182;BME280;51963;46.052;14.544;2023-04-01T08:11:09;97155.91;;;9.98;100.00
56182;BME280;51963;46.052;14.544;2023-04-01T08:23:00;97161.28;;;10.42;100.00
56182;BME280;51963;46.052;14.544;2023-04-01T08:25:38;97150.22;;;10.52;100.00
56182;BME280;51963;46.052;14.544;2023-04-01T08:30:35;97159.03;;;10.46;100.00
56182;BME280;51963;46.052;14.544;2023-04-01T08:33:21;97156.91;;;10.55;100.00
56182;BME280;51963;46.052;14.544;2023-04-01T08:40:59;97159.75;;;11.65;100.00
56182;BME280;51963;46.052;14.544;2023-04-01T08:52:29;97161.06;;;13.48;100.00
56182;BME280;51963;46.052;14.544;2023-04-01T09:00:48;97155.56;;;13.67;93.95
56182;BME280;51963;46.052;14.544;2023-04-01T09:07:09;97188.47;;;13.13;97.45
56182;BME280;51963;46.052;14.544;2023-04-01T09:29:46;97173.44;;;13.71;91.47
56182;BME280;51963;46.052;14.544;2023-04-01T09:32:04;97179.59;;;14.52;87.11
56182;BME280;51963;46.052;14.544;2023-04-01T09:40:15;97174.53;;;15.07;83.57
56182;BME280;51963;46.052;14.544;2023-04-01T09:54:18;97135.81;;;13.62;92.66
56182;BME280;51963;46.052;14.544;2023-04-01T10:16:53;97173.22;;;12.37;98.91
56182;BME280;51963;46.052;14.544;2023-04-01T10:25:02;97180.50;;;13.13;98.44
56182;BME280;51963;46.052;14.544;2023-04-01T10:31:23;97180.75;;;12.52;99.49
56182;BME280;51963;46.052;14.544;2023-04-01T11:33:38;97113.47;;;21.86;52.36
56182;BME280;51963;46.052;14.544;2023-04-01T11:36:11;97111.91;;;22.79;49.23
56182;BME280;51963;46.052;14.544;2023-04-01T11:38:57;97114.91;;;23.19;48.24
56182;BME280;51963;46.052;14.544;2023-04-01T11:42:00;97103.66;;;24.05;46.43
56182;BME280;51963;46.052;14.544;2023-04-01T11:45:00;97095.69;;;23.85;46.34
56182;BME280;51963;46.052;14.544;2023-04-01T11:47:52;97101.81;;;25.26;40.63
56182;BME280;51963;46.052;14.544;2023-04-01T11:56:50;97082.94;;;23.77;42.61
56182;BME280;51963;46.052;14.544;2023-04-01T12:02:09;97073.00;;;21.33;45.13
56182;BME280;51963;46.052;14.544;2023-04-01T12:05:15;97067.59;;;22.57;45.68
56182;BME280;51963;46.052;14.544;2023-04-01T12:08:10;97072.00;;;24.91;40.17
56182;BME280;51963;46.052;14.544;2023-04-01T12:13:27;97067.03;;;25.69;36.35
56182;BME280;51963;46.052;14.544;2023-04-01T12:18:54;97032.91;;;25.15;37.72
56182;BME280;51963;46.052;14.544;2023-04-01T12:21:34;97043.38;;;26.78;35.01
56182;BME280;51963;46.052;14.544;2023-04-01T12:29:42;97039.94;;;26.99;32.78
56182;BME280;51963;46.052;14.544;2023-04-01T12:43:21;97020.03;;;25.03;33.63
56182;BME280;51963;46.052;14.544;2023-04-01T12:48:50;97019.97;;;26.26;33.04
56182;BME280;51963;46.052;14.544;2023-04-01T12:54:24;97008.81;;;26.97;31.84
56182;BME280;51963;46.052;14.544;2023-04-01T13:05:40;96987.69;;;25.95;31.70
56182;BME280;51963;46.052;14.544;2023-04-01T13:16:25;96984.38;;;28.15;28.88
56182;BME280;51963;46.052;14.544;2023-04-01T13:19:09;96972.13;;;24.86;32.25
56182;BME280;51963;46.052;14.544;2023-04-01T13:21:49;96970.34;;;27.03;31.03
56182;BME280;51963;46.052;14.544;2023-04-01T13:27:21;96969.13;;;22.79;36.15
56182;BME280;51963;46.052;14.544;2023-04-01T13:30:02;96968.25;;;21.09;38.58
56182;BME280;51963;46.052;14.544;2023-04-01T13:32:50;96969.31;;;20.21;39.59
56182;BME280;51963;46.052;14.544;2023-04-01T13:35:33;96975.72;;;19.61;42.04
56182;BME280;51963;46.052;14.544;2023-04-01T13:41:04;96950.50;;;17.96;49.25
56182;BME280;51963;46.052;14.544;2023-04-01T13:43:35;96950.81;;;18.05;48.25
56182;BME280;51963;46.052;14.544;2023-04-01T13:49:27;96956.72;;;17.34;52.55
56182;BME280;51963;46.052;14.544;2023-04-01T14:00:32;96959.81;;;16.84;57.22
56182;BME280;51963;46.052;14.544;2023-04-01T14:06:35;96943.53;;;16.86;55.61
56182;BME280;51963;46.052;14.544;2023-04-01T14:09:19;96952.78;;;16.52;55.26
56182;BME280;51963;46.052;14.544;2023-04-01T14:17:17;96931.63;;;16.40;56.22
56182;BME280;51963;46.052;14.544;2023-04-01T14:22:38;96939.16;;;16.54;56.18
56182;BME280;51963;46.052;14.544;2023-04-01T14:28:04;96936.75;;;16.52;55.34
56182;BME280;51963;46.052;14.544;2023-04-01T14:30:57;96938.91;;;16.50;53.97
56182;BME280;51963;46.052;14.544;2023-04-01T14:33:45;96939.75;;;16.71;54.73
56182;BME280;51963;46.052;14.544;2023-04-01T14:47:51;96949.31;;;16.57;58.66
56182;BME280;51963;46.052;14.544;2023-04-01T14:50:28;96947.72;;;16.61;63.21
56182;BME280;51963;46.052;14.544;2023-04-01T14:52:59;96927.94;;;16.47;64.32
56182;BME280;51963;46.052;14.544;2023-04-01T14:58:09;96942.19;;;15.77;64.68
56182;BME280;51963;46.052;14.544;2023-04-01T15:00:50;96945.41;;;15.79;67.27
56182;BME280;51963;46.052;14.544;2023-04-01T15:12:18;96929.16;;;15.10;63.06
56182;BME280;51963;46.052;14.544;2023-04-01T15:15:27;96929.16;;;15.10;61.22
56182;BME280;51963;46.052;14.544;2023-04-01T15:34:45;96925.94;;;15.08;68.30
56182;BME280;51963;46.052;14.544;2023-04-01T15:37:44;96938.72;;;15.06;69.91
56182;BME280;51963;46.052;14.544;2023-04-01T15:43:11;96939.00;;;14.82;72.08
56182;BME280;51963;46.052;14.544;2023-04-01T15:48:46;96946.63;;;14.73;69.50
56182;BME280;51963;46.052;14.544;2023-04-01T15:51:28;96943.19;;;14.56;62.40
56182;BME280;51963;46.052;14.544;2023-04-01T15:57:42;96931.97;;;14.26;62.49
56182;BME280;51963;46.052;14.544;2023-04-01T16:04:59;96946.84;;;14.49;64.23
56182;BME280;51963;46.052;14.544;2023-04-01T16:10:21;96941.44;;;14.00;68.99
56182;BME280;51963;46.052;14.544;2023-04-01T16:21:02;96977.94;;;13.53;86.15
56182;BME280;51963;46.052;14.544;2023-04-01T16:23:48;96982.69;;;13.51;88.04
56182;BME280;51963;46.052;14.544;2023-04-01T16:29:27;97010.56;;;13.08;92.86
56182;BME280;51963;46.052;14.544;2023-04-01T16:32:07;97005.75;;;11.68;94.32
56182;BME280;51963;46.052;14.544;2023-04-01T16:34:41;97010.94;;;10.34;100.00
56182;BME280;51963;46.052;14.544;2023-04-01T16:37:13;97018.56;;;10.24;96.12
56182;BME280;51963;46.052;14.544;2023-04-01T16:42:19;96982.88;;;9.45;96.51
56182;BME280;51963;46.052;14.544;2023-04-01T16:47:30;97009.03;;;7.36;100.00
56182;BME280;51963;46.052;14.544;2023-04-01T16:50:20;97030.31;;;6.37;100.00
56182;BME280;51963;46.052;14.544;2023-04-01T16:53:09;97042.19;;;6.26;100.00
56182;BME280;51963;46.052;14.544;2023-04-01T16:58:38;97053.81;;;6.94;100.00
56182;BME280;51963;46.052;14.544;2023-04-01T17:01:12;97055.94;;;7.26;100.00
56182;BME280;51963;46.052;14.544;2023-04-01T17:03:45;97073.66;;;7.03;100.00
56182;BME280;51963;46.052;14.544;2023-04-01T17:09:05;97060.22;;;6.78;100.00
56182;BME280;51963;46.052;14.544;2023-04-01T17:19:38;97089.41;;;6.97;100.00
56182;BME280;51963;46.052;14.544;2023-04-01T17:25:10;97080.00;;;7.29;100.00
56182;BME280;51963;46.052;14.544;2023-04-01T17:30:26;97099.66;;;7.40;100.00
56182;BME280;51963;46.052;14.544;2023-04-01T17:35:49;97095.19;;;7.34;100.00
56182;BME280;51963;46.052;14.544;2023-04-01T17:41:12;97094.97;;;7.36;100.00
56182;BME280;51963;46.052;14.544;2023-04-01T17:44:11;97089.94;;;7.34;100.00
56182;BME280;51963;46.052;14.544;2023-04-01T17:58:29;97108.13;;;7.29;100.00
56182;BME280;51963;46.052;14.544;2023-04-01T18:14:40;97112.03;;;6.98;100.00
56182;BME280;51963;46.052;14.544;2023-04-01T18:23:21;97114.00;;;6.82;100.00
56182;BME280;51963;46.052;14.544;2023-04-01T18:25:51;97119.94;;;6.63;100.00
56182;BME280;51963;46.052;14.544;2023-04-01T18:28:43;97113.84;;;6.55;100.00
56182;BME280;51963;46.052;14.544;2023-04-01T18:33:48;97129.59;;;6.55;100.00
56182;BME280;51963;46.052;14.544;2023-04-01T18:39:21;97135.25;;;6.52;100.00
56182;BME280;51963;46.052;14.544;2023-04-01T18:42:05;97136.66;;;6.55;100.00
56182;BME280;51963;46.052;14.544;2023-04-01T18:44:43;97143.53;;;6.56;100.00
56182;BME280;51963;46.052;14.544;2023-04-01T18:50:11;97138.09;;;6.57;100.00
56182;BME280;51963;46.052;14.544;2023-04-01T18:52:42;97114.63;;;6.49;100.00
56182;BME280;51963;46.052;14.544;2023-04-01T18:55:35;97118.00;;;6.43;100.00
56182;BME280;51963;46.052;14.544;2023-04-01T18:58:26;97127.50;;;6.44;100.00
56182;BME280;51963;46.052;14.544;2023-04-01T19:01:26;97135.78;;;6.48;100.00
56182;BME280;51963;46.052;14.544;2023-04-01T19:04:32;97146.91;;;6.50;100.00
56182;BME280;51963;46.052;14.544;2023-04-01T19:28:15;97175.19;;;6.19;100.00
56182;BME280;51963;46.052;14.544;2023-04-01T19:30:53;97174.94;;;6.14;100.00
56182;BME280;51963;46.052;14.544;2023-04-01T19:38:56;97181.69;;;6.01;100.00
56182;BME280;51963;46.052;14.544;2023-04-01T19:50:40;97174.44;;;5.67;100.00
56182;BME280;51963;46.052;14.544;2023-04-01T19:56:03;97189.00;;;5.69;100.00
56182;BME280;51963;46.052;14.544;2023-04-01T20:01:03;97188.00;;;5.70;100.00
56182;BME280;51963;46.052;14.544;2023-04-01T20:03:57;97185.16;;;5.87;100.00
56182;BME280;51963;46.052;14.544;2023-04-01T20:09:26;97193.13;;;5.79;100.00
56182;BME280;51963;46.052;14.544;2023-04-01T20:12:03;97186.00;;;5.72;100.00
56182;BME280;51963;46.052;14.544;2023-04-01T20:25:25;97200.97;;;5.57;100.00
56182;BME280;51963;46.052;14.544;2023-04-01T20:28:04;97203.69;;;5.49;100.00
56182;BME280;51963;46.052;14.544;2023-04-01T20:33:08;97200.72;;;5.37;100.00
56182;BME280;51963;46.052;14.544;2023-04-01T20:47:55;97225.94;;;5.08;100.00
56182;BME280;51963;46.052;14.544;2023-04-01T20:50:26;97222.50;;;5.07;100.00
56182;BME280;51963;46.052;14.544;2023-04-01T20:52:57;97223.13;;;5.09;100.00
56182;BME280;51963;46.052;14.544;2023-04-01T20:55:58;97218.88;;;5.08;100.00
56182;BME280;51963;46.052;14.544;2023-04-01T21:10:23;97238.88;;;5.24;100.00
56182;BME280;51963;46.052;14.544;2023-04-01T21:13:00;97228.56;;;5.08;100.00
56182;BME280;51963;46.052;14.544;2023-04-01T21:21:23;97255.56;;;5.08;100.00
56182;BME280;51963;46.052;14.544;2023-04-01T21:37:22;97300.13;;;5.23;100.00
56182;BME280;51963;46.052;14.544;2023-04-01T21:40:23;97307.00;;;5.24;100.00
56182;BME280;51963;46.052;14.544;2023-04-01T21:49:16;97311.56;;;5.07;100.00
56182;BME280;51963;46.052;14.544;2023-04-01T22:02:38;97317.31;;;4.88;100.00
56182;BME280;51963;46.052;14.544;2023-04-01T22:05:10;97319.31;;;4.85;100.00
56182;BME280;51963;46.052;14.544;2023-04-01T22:10:38;97314.19;;;4.92;100.00
56182;BME280;51963;46.052;14.544;2023-04-01T22:13:20;97321.63;;;5.04;100.00
56182;BME280;51963;46.052;14.544;2023-04-01T22:16:11;97322.25;;;5.21;100.00
56182;BME280;51963;46.052;14.544;2023-04-01T22:24:26;97313.72;;;4.89;100.00
56182;BME280;51963;46.052;14.544;2023-04-01T22:29:53;97318.03;;;4.81;100.00
56182;BME280;51963;46.052;14.544;2023-04-01T22:32:48;97311.88;;;4.74;100.00
56182;BME280;51963;46.052;14.544;2023-04-01T22:41:09;97309.78;;;4.46;100.00
56182;BME280;51963;46.052;14.544;2023-04-01T22:43:39;97308.03;;;4.62;100.00
56182;BME280;51963;46.052;14.544;2023-04-01T22:49:03;97302.41;;;4.50;100.00
56182;BME280;51963;46.052;14.544;2023-04-01T22:51:47;97307.47;;;4.51;100.00
56182;BME280;51963;46.052;14.544;2023-04-01T22:54:34;97283.03;;;4.36;100.00
56182;BME280;51963;46.052;14.544;2023-04-01T22:57:05;97306.19;;;4.47;100.00
56182;BME280;51963;46.052;14.544;2023-04-01T23:02:03;97305.25;;;4.40;100.00
56182;BME280;51963;46.052;14.544;2023-04-01T23:04:37;97297.94;;;4.35;100.00
56182;BME280;51963;46.052;14.544;2023-04-01T23:07:27;97311.31;;;4.40;100.00
56182;BME280;51963;46.052;14.544;2023-04-01T23:09:57;97313.16;;;4.32;100.00
56182;BME280;51963;46.052;14.544;2023-04-01T23:12:25;97301.75;;;4.24;100.00
56182;BME280;51963;46.052;14.544;2023-04-01T23:15:01;97284.84;;;4.12;100.00
56182;BME280;51963;46.052;14.544;2023-04-01T23:26:02;97325.06;;;4.11;100.00
56182;BME280;51963;46.052;14.544;2023-04-01T23:30:59;97328.34;;;4.05;100.00
56182;BME280;51963;46.052;14.544;2023-04-01T23:33:29;97333.59;;;4.05;100.00
56182;BME280;51963;46.052;14.544;2023-04-01T23:36:10;97310.44;;;3.93;100.00
56182;BME280;51963;46.052;14.544;2023-04-01T23:38:40;97322.78;;;4.08;100.00